sensor_id;sensor_type;location;lat;lon;timestamp;temperature;humidity
15916;DHT22;8057;47.830;-3.870;2023-12-28T00:01:06;13.00;99.90
15916;DHT22;8057;47.830;-3.870;2023-12-28T00:05:16;13.00;99.90
15916;DHT22;8057;47.830;-3.870;2023-12-28T00:09:27;13.00;99.90
15916;DHT22;8057;47.830;-3.870;2023-12-28T00:13:36;12.90;99.90
15916;DHT22;8057;47.830;-3.870;2023-12-28T00:17:45;12.80;99.90
15916;DHT22;8057;47.830;-3.870;2023-12-28T00:21:55;12.80;99.90
15916;DHT22;8057;47.830;-3.870;2023-12-28T00:26:05;12.80;99.90
15916;DHT22;8057;47.830;-3.870;2023-12-28T00:30:14;12.90;99.90
15916;DHT22;8057;47.830;-3.870;2023-12-28T00:34:25;12.90;99.90
15916;DHT22;8057;47.830;-3.870;2023-12-28T00:38:34;12.90;99.90
15916;DHT22;8057;47.830;-3.870;2023-12-28T00:42:45;12.90;99.90
15916;DHT22;8057;47.830;-3.870;2023-12-28T00:46:54;13.00;99.90
15916;DHT22;8057;47.830;-3.870;2023-12-28T00:51:03;13.00;99.90
15916;DHT22;8057;47.830;-3.870;2023-12-28T00:55:12;13.00;99.90
15916;DHT22;8057;47.830;-3.870;2023-12-28T00:59:23;13.00;99.90
15916;DHT22;8057;47.830;-3.870;2023-12-28T01:03:32;12.90;99.90
15916;DHT22;8057;47.830;-3.870;2023-12-28T01:07:41;12.90;99.90
15916;DHT22;8057;47.830;-3.870;2023-12-28T01:11:50;12.90;99.90
15916;DHT22;8057;47.830;-3.870;2023-12-28T01:16:01;12.90;99.90
15916;DHT22;8057;47.830;-3.870;2023-12-28T01:20:10;12.90;99.90
15916;DHT22;8057;47.830;-3.870;2023-12-28T01:24:20;12.80;99.90
15916;DHT22;8057;47.830;-3.870;2023-12-28T01:28:29;12.80;99.90
15916;DHT22;8057;47.830;-3.870;2023-12-28T01:32:40;12.80;99.90
15916;DHT22;8057;47.830;-3.870;2023-12-28T01:36:49;12.80;99.90
15916;DHT22;8057;47.830;-3.870;2023-12-28T01:40:58;12.80;99.90
15916;DHT22;8057;47.830;-3.870;2023-12-28T01:45:08;12.80;99.90
15916;DHT22;8057;47.830;-3.870;2023-12-28T01:49:18;12.80;99.90
15916;DHT22;8057;47.830;-3.870;2023-12-28T01:53:28;12.80;99.90
15916;DHT22;8057;47.830;-3.870;2023-12-28T01:57:38;12.80;99.90
15916;DHT22;8057;47.830;-3.870;2023-12-28T02:01:47;12.80;99.90
15916;DHT22;8057;47.830;-3.870;2023-12-28T02:05:58;12.90;99.90
15916;DHT22;8057;47.830;-3.870;2023-12-28T02:10:08;12.90;99.90
15916;DHT22;8057;47.830;-3.870;2023-12-28T02:14:17;12.80;99.90
15916;DHT22;8057;47.830;-3.870;2023-12-28T02:18:33;12.80;99.90
15916;DHT22;8057;47.830;-3.870;2023-12-28T02:22:45;12.80;99.90
15916;DHT22;8057;47.830;-3.870;2023-12-28T02:26:56;12.80;99.90
15916;DHT22;8057;47.830;-3.870;2023-12-28T02:31:07;12.70;99.90
15916;DHT22;8057;47.830;-3.870;2023-12-28T02:35:19;12.70;99.90
15916;DHT22;8057;47.830;-3.870;2023-12-28T02:39:30;12.70;99.90
15916;DHT22;8057;47.830;-3.870;2023-12-28T02:43:41;12.70;99.90
15916;DHT22;8057;47.830;-3.870;2023-12-28T02:47:50;12.70;99.90
15916;DHT22;8057;47.830;-3.870;2023-12-28T02:51:59;12.60;99.90
15916;DHT22;8057;47.830;-3.870;2023-12-28T02:56:09;12.60;99.90
15916;DHT22;8057;47.830;-3.870;2023-12-28T03:00:19;12.60;99.90
15916;DHT22;8057;47.830;-3.870;2023-12-28T03:04:28;12.60;99.90
15916;DHT22;8057;47.830;-3.870;2023-12-28T03:08:38;12.60;99.90
15916;DHT22;8057;47.830;-3.870;2023-12-28T03:12:47;12.60;99.90
15916;DHT22;8057;47.830;-3.870;2023-12-28T03:16:58;12.60;99.90
15916;DHT22;8057;47.830;-3.870;2023-12-28T03:21:07;12.50;99.90
15916;DHT22;8057;47.830;-3.870;2023-12-28T03:25:16;12.50;99.90
15916;DHT22;8057;47.830;-3.870;2023-12-28T03:29:26;12.60;99.90
15916;DHT22;8057;47.830;-3.870;2023-12-28T03:33:37;12.70;99.90
15916;DHT22;8057;47.830;-3.870;2023-12-28T03:37:46;12.70;99.90
15916;DHT22;8057;47.830;-3.870;2023-12-28T03:41:55;12.70;99.90
15916;DHT22;8057;47.830;-3.870;2023-12-28T03:46:05;12.70;99.90
15916;DHT22;8057;47.830;-3.870;2023-12-28T03:50:15;12.70;99.90
15916;DHT22;8057;47.830;-3.870;2023-12-28T03:54:25;12.70;99.90
15916;DHT22;8057;47.830;-3.870;2023-12-28T03:58:34;12.70;99.90
15916;DHT22;8057;47.830;-3.870;2023-12-28T04:02:43;12.60;99.90
15916;DHT22;8057;47.830;-3.870;2023-12-28T04:06:55;12.60;99.90
15916;DHT22;8057;47.830;-3.870;2023-12-28T04:11:04;12.60;99.90
15916;DHT22;8057;47.830;-3.870;2023-12-28T04:15:13;12.60;99.90
15916;DHT22;8057;47.830;-3.870;2023-12-28T04:19:23;12.70;99.90
15916;DHT22;8057;47.830;-3.870;2023-12-28T04:23:33;12.60;99.90
15916;DHT22;8057;47.830;-3.870;2023-12-28T04:27:43;12.60;99.90
15916;DHT22;8057;47.830;-3.870;2023-12-28T04:31:52;12.60;99.90
15916;DHT22;8057;47.830;-3.870;2023-12-28T04:36:03;12.60;99.90
15916;DHT22;8057;47.830;-3.870;2023-12-28T04:40:15;12.60;99.90
15916;DHT22;8057;47.830;-3.870;2023-12-28T04:44:24;12.50;99.90
15916;DHT22;8057;47.830;-3.870;2023-12-28T04:48:35;12.40;99.90
15916;DHT22;8057;47.830;-3.870;2023-12-28T04:52:44;12.40;99.90
15916;DHT22;8057;47.830;-3.870;2023-12-28T04:56:55;12.50;99.90
15916;DHT22;8057;47.830;-3.870;2023-12-28T05:01:04;12.50;99.90
15916;DHT22;8057;47.830;-3.870;2023-12-28T05:05:13;12.50;99.90
15916;DHT22;8057;47.830;-3.870;2023-12-28T05:09:23;12.50;99.90
15916;DHT22;8057;47.830;-3.870;2023-12-28T05:13:34;12.50;99.90
15916;DHT22;8057;47.830;-3.870;2023-12-28T05:17:43;12.50;99.90
15916;DHT22;8057;47.830;-3.870;2023-12-28T05:21:52;12.50;99.90
15916;DHT22;8057;47.830;-3.870;2023-12-28T05:26:01;12.50;99.90
15916;DHT22;8057;47.830;-3.870;2023-12-28T05:30:12;12.50;99.90
15916;DHT22;8057;47.830;-3.870;2023-12-28T05:34:22;12.40;99.90
15916;DHT22;8057;47.830;-3.870;2023-12-28T05:38:31;12.40;99.90
15916;DHT22;8057;47.830;-3.870;2023-12-28T05:42:41;12.50;99.90
15916;DHT22;8057;47.830;-3.870;2023-12-28T05:46:51;12.50;99.90
15916;DHT22;8057;47.830;-3.870;2023-12-28T05:51:01;12.50;99.90
15916;DHT22;8057;47.830;-3.870;2023-12-28T05:55:10;12.50;99.90
15916;DHT22;8057;47.830;-3.870;2023-12-28T05:59:19;12.50;99.90
15916;DHT22;8057;47.830;-3.870;2023-12-28T06:03:31;12.50;99.90
15916;DHT22;8057;47.830;-3.870;2023-12-28T06:07:42;12.50;99.90
15916;DHT22;8057;47.830;-3.870;2023-12-28T06:11:51;12.40;99.90
15916;DHT22;8057;47.830;-3.870;2023-12-28T06:16:00;12.40;99.90
15916;DHT22;8057;47.830;-3.870;2023-12-28T06:20:11;12.40;99.90
15916;DHT22;8057;47.830;-3.870;2023-12-28T06:24:21;12.40;99.90
15916;DHT22;8057;47.830;-3.870;2023-12-28T06:28:30;12.40;99.90
15916;DHT22;8057;47.830;-3.870;2023-12-28T06:32:39;12.40;99.90
15916;DHT22;8057;47.830;-3.870;2023-12-28T06:36:50;12.40;99.90
15916;DHT22;8057;47.830;-3.870;2023-12-28T06:40:59;12.40;99.90
15916;DHT22;8057;47.830;-3.870;2023-12-28T06:45:09;12.40;99.90
15916;DHT22;8057;47.830;-3.870;2023-12-28T06:49:19;12.40;99.90
15916;DHT22;8057;47.830;-3.870;2023-12-28T06:53:29;12.40;99.90
15916;DHT22;8057;47.830;-3.870;2023-12-28T06:57:39;12.30;99.90
15916;DHT22;8057;47.830;-3.870;2023-12-28T07:01:48;12.40;99.90
15916;DHT22;8057;47.830;-3.870;2023-12-28T07:05:57;12.40;99.90
15916;DHT22;8057;47.830;-3.870;2023-12-28T07:10:09;12.40;99.90
15916;DHT22;8057;47.830;-3.870;2023-12-28T07:14:18;12.40;99.90
15916;DHT22;8057;47.830;-3.870;2023-12-28T07:18:27;12.30;99.90
15916;DHT22;8057;47.830;-3.870;2023-12-28T07:22:37;12.40;99.90
15916;DHT22;8057;47.830;-3.870;2023-12-28T07:26:47;12.40;99.90
15916;DHT22;8057;47.830;-3.870;2023-12-28T07:30:57;12.40;99.90
15916;DHT22;8057;47.830;-3.870;2023-12-28T07:35:07;12.40;99.90
15916;DHT22;8057;47.830;-3.870;2023-12-28T07:39:16;12.40;99.90
15916;DHT22;8057;47.830;-3.870;2023-12-28T07:43:26;12.40;99.90
15916;DHT22;8057;47.830;-3.870;2023-12-28T07:47:36;12.40;99.90
15916;DHT22;8057;47.830;-3.870;2023-12-28T07:51:46;12.50;99.90
15916;DHT22;8057;47.830;-3.870;2023-12-28T07:55:55;12.50;99.90
15916;DHT22;8057;47.830;-3.870;2023-12-28T08:00:08;12.60;99.90
15916;DHT22;8057;47.830;-3.870;2023-12-28T08:04:17;12.60;99.90
15916;DHT22;8057;47.830;-3.870;2023-12-28T08:08:27;12.70;99.90
15916;DHT22;8057;47.830;-3.870;2023-12-28T08:12:36;12.70;99.90
15916;DHT22;8057;47.830;-3.870;2023-12-28T08:16:47;12.70;99.90
15916;DHT22;8057;47.830;-3.870;2023-12-28T08:20:56;12.70;99.90
15916;DHT22;8057;47.830;-3.870;2023-12-28T08:25:06;12.70;99.90
15916;DHT22;8057;47.830;-3.870;2023-12-28T08:29:16;12.60;99.90
15916;DHT22;8057;47.830;-3.870;2023-12-28T08:33:27;12.70;99.90
15916;DHT22;8057;47.830;-3.870;2023-12-28T08:37:37;12.80;99.90
15916;DHT22;8057;47.830;-3.870;2023-12-28T08:41:46;12.70;99.90
15916;DHT22;8057;47.830;-3.870;2023-12-28T08:45:55;12.70;99.90
15916;DHT22;8057;47.830;-3.870;2023-12-28T08:50:09;12.80;99.90
15916;DHT22;8057;47.830;-3.870;2023-12-28T08:54:19;12.80;99.90
15916;DHT22;8057;47.830;-3.870;2023-12-28T08:58:28;12.90;99.90
15916;DHT22;8057;47.830;-3.870;2023-12-28T09:02:37;13.00;99.90
15916;DHT22;8057;47.830;-3.870;2023-12-28T09:06:47;13.10;99.90
15916;DHT22;8057;47.830;-3.870;2023-12-28T09:10:57;13.20;99.90
15916;DHT22;8057;47.830;-3.870;2023-12-28T09:15:07;13.10;99.90
15916;DHT22;8057;47.830;-3.870;2023-12-28T09:19:16;13.00;99.90
15916;DHT22;8057;47.830;-3.870;2023-12-28T09:23:27;13.10;99.90
15916;DHT22;8057;47.830;-3.870;2023-12-28T09:27:36;13.10;99.90
15916;DHT22;8057;47.830;-3.870;2023-12-28T09:31:46;13.10;99.90
15916;DHT22;8057;47.830;-3.870;2023-12-28T09:35:56;13.10;99.90
15916;DHT22;8057;47.830;-3.870;2023-12-28T09:40:08;13.10;99.90
15916;DHT22;8057;47.830;-3.870;2023-12-28T09:44:18;13.00;99.90
15916;DHT22;8057;47.830;-3.870;2023-12-28T09:48:28;13.10;99.90
15916;DHT22;8057;47.830;-3.870;2023-12-28T09:52:38;13.10;99.90
15916;DHT22;8057;47.830;-3.870;2023-12-28T09:56:49;13.20;99.90
15916;DHT22;8057;47.830;-3.870;2023-12-28T10:00:59;13.30;99.90
15916;DHT22;8057;47.830;-3.870;2023-12-28T10:05:12;13.40;99.90
15916;DHT22;8057;47.830;-3.870;2023-12-28T10:09:22;13.40;99.90
15916;DHT22;8057;47.830;-3.870;2023-12-28T10:13:35;13.40;99.90
15916;DHT22;8057;47.830;-3.870;2023-12-28T10:17:46;13.50;99.90
15916;DHT22;8057;47.830;-3.870;2023-12-28T10:21:56;13.50;99.90
15916;DHT22;8057;47.830;-3.870;2023-12-28T10:26:05;13.50;99.90
15916;DHT22;8057;47.830;-3.870;2023-12-28T10:30:17;13.50;99.90
15916;DHT22;8057;47.830;-3.870;2023-12-28T10:34:27;13.60;99.90
15916;DHT22;8057;47.830;-3.870;2023-12-28T10:38:37;13.60;99.90
15916;DHT22;8057;47.830;-3.870;2023-12-28T10:42:51;13.60;99.90
15916;DHT22;8057;47.830;-3.870;2023-12-28T10:47:05;13.50;99.90
15916;DHT22;8057;47.830;-3.870;2023-12-28T10:51:16;13.60;99.90
15916;DHT22;8057;47.830;-3.870;2023-12-28T10:55:33;13.60;99.90
15916;DHT22;8057;47.830;-3.870;2023-12-28T10:59:50;13.70;99.90
15916;DHT22;8057;47.830;-3.870;2023-12-28T11:04:09;13.70;99.90
15916;DHT22;8057;47.830;-3.870;2023-12-28T11:08:19;13.60;99.90
15916;DHT22;8057;47.830;-3.870;2023-12-28T11:12:29;13.50;99.90
15916;DHT22;8057;47.830;-3.870;2023-12-28T11:16:40;13.50;99.90
15916;DHT22;8057;47.830;-3.870;2023-12-28T11:20:52;13.60;99.90
15916;DHT22;8057;47.830;-3.870;2023-12-28T11:25:02;13.60;99.90
15916;DHT22;8057;47.830;-3.870;2023-12-28T11:29:12;13.70;99.90
15916;DHT22;8057;47.830;-3.870;2023-12-28T11:33:21;13.80;99.90
15916;DHT22;8057;47.830;-3.870;2023-12-28T11:37:33;13.70;99.90
15916;DHT22;8057;47.830;-3.870;2023-12-28T11:41:45;13.80;99.90
15916;DHT22;8057;47.830;-3.870;2023-12-28T11:45:55;13.90;99.90
15916;DHT22;8057;47.830;-3.870;2023-12-28T11:50:10;14.00;99.90
15916;DHT22;8057;47.830;-3.870;2023-12-28T11:54:21;13.90;99.90
15916;DHT22;8057;47.830;-3.870;2023-12-28T11:58:30;14.00;99.90
15916;DHT22;8057;47.830;-3.870;2023-12-28T12:02:46;13.90;99.90
15916;DHT22;8057;47.830;-3.870;2023-12-28T12:06:55;13.90;99.90
15916;DHT22;8057;47.830;-3.870;2023-12-28T12:11:07;13.90;99.90
15916;DHT22;8057;47.830;-3.870;2023-12-28T12:15:17;13.80;99.90
15916;DHT22;8057;47.830;-3.870;2023-12-28T12:19:27;13.90;99.90
15916;DHT22;8057;47.830;-3.870;2023-12-28T12:23:38;13.80;99.90
15916;DHT22;8057;47.830;-3.870;2023-12-28T12:27:49;13.90;99.90
15916;DHT22;8057;47.830;-3.870;2023-12-28T12:31:59;13.90;99.90
15916;DHT22;8057;47.830;-3.870;2023-12-28T12:36:11;13.90;99.90
15916;DHT22;8057;47.830;-3.870;2023-12-28T12:40:20;13.90;99.90
15916;DHT22;8057;47.830;-3.870;2023-12-28T12:44:32;13.90;99.90
15916;DHT22;8057;47.830;-3.870;2023-12-28T12:48:41;13.90;99.90
15916;DHT22;8057;47.830;-3.870;2023-12-28T12:52:51;14.00;99.90
15916;DHT22;8057;47.830;-3.870;2023-12-28T12:57:00;14.00;99.90
15916;DHT22;8057;47.830;-3.870;2023-12-28T13:01:12;14.00;99.90
15916;DHT22;8057;47.830;-3.870;2023-12-28T13:05:21;14.00;99.90
15916;DHT22;8057;47.830;-3.870;2023-12-28T13:09:32;13.90;99.90
15916;DHT22;8057;47.830;-3.870;2023-12-28T13:13:42;14.00;99.90
15916;DHT22;8057;47.830;-3.870;2023-12-28T13:17:52;14.00;99.90
15916;DHT22;8057;47.830;-3.870;2023-12-28T13:22:02;14.00;99.90
15916;DHT22;8057;47.830;-3.870;2023-12-28T13:26:15;13.90;99.90
15916;DHT22;8057;47.830;-3.870;2023-12-28T13:30:24;13.90;99.90
15916;DHT22;8057;47.830;-3.870;2023-12-28T13:34:56;13.90;99.90
15916;DHT22;8057;47.830;-3.870;2023-12-28T13:39:09;13.90;99.90
15916;DHT22;8057;47.830;-3.870;2023-12-28T13:43:22;13.90;99.90
15916;DHT22;8057;47.830;-3.870;2023-12-28T13:47:31;14.00;99.90
15916;DHT22;8057;47.830;-3.870;2023-12-28T13:51:43;13.90;99.90
15916;DHT22;8057;47.830;-3.870;2023-12-28T13:55:53;13.90;99.90
15916;DHT22;8057;47.830;-3.870;2023-12-28T14:00:03;13.90;99.90
15916;DHT22;8057;47.830;-3.870;2023-12-28T14:04:13;14.00;99.90
15916;DHT22;8057;47.830;-3.870;2023-12-28T14:08:24;13.90;99.90
15916;DHT22;8057;47.830;-3.870;2023-12-28T14:12:33;13.90;99.90
15916;DHT22;8057;47.830;-3.870;2023-12-28T14:16:42;13.80;99.90
15916;DHT22;8057;47.830;-3.870;2023-12-28T14:20:53;13.80;99.90
15916;DHT22;8057;47.830;-3.870;2023-12-28T14:25:05;13.70;99.90
15916;DHT22;8057;47.830;-3.870;2023-12-28T14:29:14;13.70;99.90
15916;DHT22;8057;47.830;-3.870;2023-12-28T14:33:24;13.60;99.90
15916;DHT22;8057;47.830;-3.870;2023-12-28T14:37:33;13.70;99.90
15916;DHT22;8057;47.830;-3.870;2023-12-28T14:41:48;13.60;99.90
15916;DHT22;8057;47.830;-3.870;2023-12-28T14:45:57;13.60;99.90
15916;DHT22;8057;47.830;-3.870;2023-12-28T14:50:07;13.60;99.90
15916;DHT22;8057;47.830;-3.870;2023-12-28T14:54:17;13.60;99.90
15916;DHT22;8057;47.830;-3.870;2023-12-28T14:58:27;13.60;99.90
15916;DHT22;8057;47.830;-3.870;2023-12-28T15:02:37;13.50;99.90
15916;DHT22;8057;47.830;-3.870;2023-12-28T15:06:47;13.60;99.90
15916;DHT22;8057;47.830;-3.870;2023-12-28T15:10:56;13.50;99.90
15916;DHT22;8057;47.830;-3.870;2023-12-28T15:15:08;13.50;99.90
15916;DHT22;8057;47.830;-3.870;2023-12-28T15:19:18;13.50;99.90
15916;DHT22;8057;47.830;-3.870;2023-12-28T15:23:27;13.50;99.90
15916;DHT22;8057;47.830;-3.870;2023-12-28T15:27:38;13.40;99.90
15916;DHT22;8057;47.830;-3.870;2023-12-28T15:31:48;13.30;99.90
15916;DHT22;8057;47.830;-3.870;2023-12-28T15:35:57;13.40;99.90
15916;DHT22;8057;47.830;-3.870;2023-12-28T15:40:08;13.30;99.90
15916;DHT22;8057;47.830;-3.870;2023-12-28T15:44:18;13.30;99.90
15916;DHT22;8057;47.830;-3.870;2023-12-28T15:48:37;13.30;99.90
15916;DHT22;8057;47.830;-3.870;2023-12-28T15:52:47;13.30;99.90
15916;DHT22;8057;47.830;-3.870;2023-12-28T15:56:56;13.30;99.90
15916;DHT22;8057;47.830;-3.870;2023-12-28T16:01:05;13.30;99.90
15916;DHT22;8057;47.830;-3.870;2023-12-28T16:05:16;13.20;99.90
15916;DHT22;8057;47.830;-3.870;2023-12-28T16:09:26;13.20;99.90
15916;DHT22;8057;47.830;-3.870;2023-12-28T16:13:35;13.20;99.90
15916;DHT22;8057;47.830;-3.870;2023-12-28T16:17:45;13.10;99.90
15916;DHT22;8057;47.830;-3.870;2023-12-28T16:21:56;13.10;99.90
15916;DHT22;8057;47.830;-3.870;2023-12-28T16:26:07;13.00;99.90
15916;DHT22;8057;47.830;-3.870;2023-12-28T16:30:16;13.00;99.90
15916;DHT22;8057;47.830;-3.870;2023-12-28T16:34:26;13.10;99.90
15916;DHT22;8057;47.830;-3.870;2023-12-28T16:38:37;13.00;99.90
15916;DHT22;8057;47.830;-3.870;2023-12-28T16:42:46;13.00;99.90
15916;DHT22;8057;47.830;-3.870;2023-12-28T16:46:55;13.00;99.90
15916;DHT22;8057;47.830;-3.870;2023-12-28T16:51:10;13.00;99.90
15916;DHT22;8057;47.830;-3.870;2023-12-28T16:55:25;13.00;99.90
15916;DHT22;8057;47.830;-3.870;2023-12-28T16:59:40;13.00;99.90
15916;DHT22;8057;47.830;-3.870;2023-12-28T17:03:56;13.00;99.90
15916;DHT22;8057;47.830;-3.870;2023-12-28T17:08:06;13.00;99.90
15916;DHT22;8057;47.830;-3.870;2023-12-28T17:12:26;13.00;99.90
15916;DHT22;8057;47.830;-3.870;2023-12-28T17:16:37;13.00;99.90
15916;DHT22;8057;47.830;-3.870;2023-12-28T17:20:47;13.00;99.90
15916;DHT22;8057;47.830;-3.870;2023-12-28T17:25:02;13.00;99.90
15916;DHT22;8057;47.830;-3.870;2023-12-28T17:29:16;13.10;99.90
15916;DHT22;8057;47.830;-3.870;2023-12-28T17:33:25;13.10;99.90
15916;DHT22;8057;47.830;-3.870;2023-12-28T17:37:35;13.10;99.90
15916;DHT22;8057;47.830;-3.870;2023-12-28T17:41:45;13.10;99.90
15916;DHT22;8057;47.830;-3.870;2023-12-28T17:46:07;13.10;99.90
15916;DHT22;8057;47.830;-3.870;2023-12-28T17:50:18;13.10;99.90
15916;DHT22;8057;47.830;-3.870;2023-12-28T17:54:30;13.10;99.90
15916;DHT22;8057;47.830;-3.870;2023-12-28T17:58:39;13.20;99.90
15916;DHT22;8057;47.830;-3.870;2023-12-28T18:02:51;13.20;99.90
15916;DHT22;8057;47.830;-3.870;2023-12-28T18:07:00;13.20;99.90
15916;DHT22;8057;47.830;-3.870;2023-12-28T18:11:18;13.10;99.90
15916;DHT22;8057;47.830;-3.870;2023-12-28T18:15:27;13.10;99.90
15916;DHT22;8057;47.830;-3.870;2023-12-28T18:19:40;13.00;99.90
15916;DHT22;8057;47.830;-3.870;2023-12-28T18:24:04;13.00;99.90
15916;DHT22;8057;47.830;-3.870;2023-12-28T18:29:04;13.00;99.90
15916;DHT22;8057;47.830;-3.870;2023-12-28T18:33:56;13.00;99.90
15916;DHT22;8057;47.830;-3.870;2023-12-28T18:38:06;13.00;99.90
15916;DHT22;8057;47.830;-3.870;2023-12-28T18:42:17;13.00;99.90
15916;DHT22;8057;47.830;-3.870;2023-12-28T18:46:26;12.90;99.90
15916;DHT22;8057;47.830;-3.870;2023-12-28T18:50:35;12.90;99.90
15916;DHT22;8057;47.830;-3.870;2023-12-28T18:54:46;12.90;99.90
15916;DHT22;8057;47.830;-3.870;2023-12-28T18:58:55;12.90;99.90
15916;DHT22;8057;47.830;-3.870;2023-12-28T19:03:04;12.90;99.90
15916;DHT22;8057;47.830;-3.870;2023-12-28T19:07:13;12.90;99.90
15916;DHT22;8057;47.830;-3.870;2023-12-28T19:11:24;12.90;99.90
15916;DHT22;8057;47.830;-3.870;2023-12-28T19:15:33;12.90;99.90
15916;DHT22;8057;47.830;-3.870;2023-12-28T19:19:42;12.90;99.90
15916;DHT22;8057;47.830;-3.870;2023-12-28T19:23:51;12.90;99.90
15916;DHT22;8057;47.830;-3.870;2023-12-28T19:28:02;12.90;99.90
15916;DHT22;8057;47.830;-3.870;2023-12-28T19:32:12;12.90;99.90
15916;DHT22;8057;47.830;-3.870;2023-12-28T19:36:21;12.90;99.90
15916;DHT22;8057;47.830;-3.870;2023-12-28T19:40:30;12.90;99.90
15916;DHT22;8057;47.830;-3.870;2023-12-28T19:44:40;12.90;99.90
15916;DHT22;8057;47.830;-3.870;2023-12-28T19:48:50;12.90;99.90
15916;DHT22;8057;47.830;-3.870;2023-12-28T19:52:59;12.90;99.90
15916;DHT22;8057;47.830;-3.870;2023-12-28T19:57:09;12.90;99.90
15916;DHT22;8057;47.830;-3.870;2023-12-28T20:01:19;12.90;99.90
15916;DHT22;8057;47.830;-3.870;2023-12-28T20:05:28;12.90;99.90
15916;DHT22;8057;47.830;-3.870;2023-12-28T20:09:38;12.90;99.90
15916;DHT22;8057;47.830;-3.870;2023-12-28T20:13:47;12.90;99.90
15916;DHT22;8057;47.830;-3.870;2023-12-28T20:17:58;12.90;99.90
15916;DHT22;8057;47.830;-3.870;2023-12-28T20:22:08;12.90;99.90
15916;DHT22;8057;47.830;-3.870;2023-12-28T20:26:17;12.90;99.90
15916;DHT22;8057;47.830;-3.870;2023-12-28T20:30:26;12.90;99.90
15916;DHT22;8057;47.830;-3.870;2023-12-28T20:34:39;13.00;99.90
15916;DHT22;8057;47.830;-3.870;2023-12-28T20:38:48;13.00;99.90
15916;DHT22;8057;47.830;-3.870;2023-12-28T20:42:57;13.00;99.90
15916;DHT22;8057;47.830;-3.870;2023-12-28T20:47:06;13.00;99.90
15916;DHT22;8057;47.830;-3.870;2023-12-28T20:51:17;13.00;99.90
15916;DHT22;8057;47.830;-3.870;2023-12-28T20:55:26;13.10;99.90
15916;DHT22;8057;47.830;-3.870;2023-12-28T20:59:36;13.00;99.90
15916;DHT22;8057;47.830;-3.870;2023-12-28T21:03:48;13.00;99.90
15916;DHT22;8057;47.830;-3.870;2023-12-28T21:07:58;13.00;99.90
15916;DHT22;8057;47.830;-3.870;2023-12-28T21:12:08;13.00;99.90
15916;DHT22;8057;47.830;-3.870;2023-12-28T21:16:19;12.90;99.90
15916;DHT22;8057;47.830;-3.870;2023-12-28T21:20:30;13.00;99.90
15916;DHT22;8057;47.830;-3.870;2023-12-28T21:24:41;13.00;99.90
15916;DHT22;8057;47.830;-3.870;2023-12-28T21:28:51;13.00;99.90
15916;DHT22;8057;47.830;-3.870;2023-12-28T21:33:00;13.00;99.90
15916;DHT22;8057;47.830;-3.870;2023-12-28T21:37:09;13.00;99.90
15916;DHT22;8057;47.830;-3.870;2023-12-28T21:41:19;13.00;99.90
15916;DHT22;8057;47.830;-3.870;2023-12-28T21:45:28;13.00;99.90
15916;DHT22;8057;47.830;-3.870;2023-12-28T21:49:38;13.00;99.90
15916;DHT22;8057;47.830;-3.870;2023-12-28T21:53:48;13.00;99.90
15916;DHT22;8057;47.830;-3.870;2023-12-28T21:57:59;13.00;99.90
15916;DHT22;8057;47.830;-3.870;2023-12-28T22:02:09;13.00;99.90
15916;DHT22;8057;47.830;-3.870;2023-12-28T22:06:18;13.10;99.90
15916;DHT22;8057;47.830;-3.870;2023-12-28T22:10:27;13.10;99.90
15916;DHT22;8057;47.830;-3.870;2023-12-28T22:14:39;13.10;99.90
15916;DHT22;8057;47.830;-3.870;2023-12-28T22:18:49;13.00;99.90
15916;DHT22;8057;47.830;-3.870;2023-12-28T22:22:58;13.00;99.90
15916;DHT22;8057;47.830;-3.870;2023-12-28T22:27:07;12.90;99.90
15916;DHT22;8057;47.830;-3.870;2023-12-28T22:31:18;12.80;99.90
15916;DHT22;8057;47.830;-3.870;2023-12-28T22:35:31;12.70;99.90
15916;DHT22;8057;47.830;-3.870;2023-12-28T22:39:40;12.80;99.90
15916;DHT22;8057;47.830;-3.870;2023-12-28T22:43:50;12.80;99.90
15916;DHT22;8057;47.830;-3.870;2023-12-28T22:48:01;12.80;99.90
15916;DHT22;8057;47.830;-3.870;2023-12-28T22:52:11;12.80;99.90
15916;DHT22;8057;47.830;-3.870;2023-12-28T22:56:23;12.90;99.90
15916;DHT22;8057;47.830;-3.870;2023-12-28T23:00:33;13.00;99.90
15916;DHT22;8057;47.830;-3.870;2023-12-28T23:04:44;13.00;99.90
15916;DHT22;8057;47.830;-3.870;2023-12-28T23:09:03;13.00;99.90
15916;DHT22;8057;47.830;-3.870;2023-12-28T23:13:14;13.00;99.90
15916;DHT22;8057;47.830;-3.870;2023-12-28T23:17:23;13.00;99.90
15916;DHT22;8057;47.830;-3.870;2023-12-28T23:21:34;13.00;99.90
15916;DHT22;8057;47.830;-3.870;2023-12-28T23:25:43;13.00;99.90
15916;DHT22;8057;47.830;-3.870;2023-12-28T23:29:53;13.00;99.90
15916;DHT22;8057;47.830;-3.870;2023-12-28T23:34:01;13.00;99.90
15916;DHT22;8057;47.830;-3.870;2023-12-28T23:38:21;13.00;99.90
15916;DHT22;8057;47.830;-3.870;2023-12-28T23:42:30;13.00;99.90
15916;DHT22;8057;47.830;-3.870;2023-12-28T23:46:39;12.90;99.90
15916;DHT22;8057;47.830;-3.870;2023-12-28T23:50:48;12.90;99.90
15916;DHT22;8057;47.830;-3.870;2023-12-28T23:54:58;12.90;99.90
15916;DHT22;8057;47.830;-3.870;2023-12-28T23:59:08;13.00;99.90
